createdAt,value
2018-09-26T00:01:28.531Z,43
2018-09-26T00:11:28.143Z,43
2018-09-26T00:21:30.697Z,42
2018-09-26T00:31:28.397Z,43
2018-09-26T00:41:29.362Z,42
2018-09-26T00:51:28.123Z,43
2018-09-26T01:01:27.904Z,46
2018-09-26T01:11:27.761Z,46
2018-09-26T01:21:27.708Z,46
2018-09-26T01:31:28.340Z,46
2018-09-26T01:41:29.033Z,43
2018-09-26T01:51:28.005Z,45
2018-09-26T02:01:28.287Z,44
2018-09-26T02:11:28.103Z,44
2018-09-26T02:21:28.157Z,45
2018-09-26T02:31:27.876Z,46
2018-09-26T02:41:27.835Z,46
2018-09-26T02:51:30.562Z,43
2018-09-26T03:01:28.309Z,44
2018-09-26T03:11:28.094Z,46
2018-09-26T03:21:29.100Z,44
2018-09-26T03:31:27.831Z,44
2018-09-26T03:41:28.954Z,46
2018-09-26T03:51:28.452Z,44
2018-09-26T04:01:28.470Z,46
2018-09-26T04:11:28.763Z,45
2018-09-26T04:21:27.879Z,44
2018-09-26T04:31:28.473Z,46
2018-09-26T04:41:30.973Z,43
2018-09-26T04:51:27.671Z,44
2018-09-26T05:01:28.409Z,46
2018-09-26T05:11:28.136Z,45
2018-09-26T05:21:28.973Z,44
2018-09-26T05:31:28.508Z,44
2018-09-26T05:41:28.479Z,46
2018-09-26T05:51:29.288Z,43
2018-09-26T06:01:28.203Z,44
2018-09-26T06:11:27.902Z,47
2018-09-26T06:21:27.836Z,46
2018-09-26T06:31:30.519Z,42
2018-09-26T06:41:28.330Z,43
2018-09-26T06:51:28.888Z,43
2018-09-26T07:01:27.723Z,43
2018-09-26T07:11:29.044Z,43
2018-09-26T07:21:28.035Z,43
2018-09-26T07:31:28.078Z,46
2018-09-26T07:41:28.986Z,43
2018-09-26T07:51:28.405Z,44
2018-09-26T08:01:29.214Z,43
2018-09-26T08:11:28.852Z,44
2018-09-26T08:21:28.566Z,43
2018-09-26T08:31:28.591Z,44
2018-09-26T08:41:28.884Z,43
2018-09-26T08:51:27.796Z,42
2018-09-26T09:01:28.869Z,44
2018-09-26T09:11:28.968Z,44
2018-09-26T09:21:28.251Z,44
2018-09-26T09:31:28.314Z,43
2018-09-26T09:41:29.594Z,42
2018-09-26T09:51:29.060Z,43
2018-09-26T10:01:28.709Z,41
2018-09-26T10:11:29.118Z,43
2018-09-26T10:21:28.116Z,42
2018-09-26T10:31:28.196Z,43
2018-09-26T10:41:28.589Z,42
2018-09-26T10:51:29.071Z,42
2018-09-26T11:01:27.896Z,41
2018-09-26T11:11:28.068Z,43
2018-09-26T11:21:32.067Z,40
2018-09-26T11:31:28.757Z,41
2018-09-26T11:41:29.072Z,43
2018-09-26T11:51:28.513Z,40
2018-09-26T12:01:29.012Z,40
2018-09-26T12:11:27.815Z,40
2018-09-26T12:21:32.955Z,42
2018-09-26T12:31:29.383Z,40
2018-09-26T12:41:28.722Z,40
2018-09-26T12:51:28.581Z,40
2018-09-26T13:01:30.207Z,40
2018-09-26T13:11:28.020Z,40
2018-09-26T13:21:28.385Z,41
2018-09-26T13:31:28.304Z,40
2018-09-26T13:41:29.078Z,40
2018-09-26T13:51:27.486Z,40
2018-09-26T14:01:29.236Z,40
2018-09-26T14:11:30.315Z,39
2018-09-26T14:21:28.826Z,42
2018-09-26T14:31:29.548Z,40
2018-09-26T14:41:28.610Z,40
2018-09-26T14:51:27.702Z,41
2018-09-26T15:01:29.603Z,40
2018-09-26T15:11:28.947Z,40
2018-09-26T15:21:26.905Z,40
2018-09-26T15:31:28.033Z,41
2018-09-26T15:41:28.082Z,40
2018-09-26T15:51:28.488Z,41
2018-09-26T16:01:29.472Z,40
2018-09-26T16:11:29.011Z,40
2018-09-26T16:21:28.095Z,41
2018-09-26T16:31:29.249Z,40
2018-09-26T16:41:29.230Z,40
2018-09-26T16:51:27.084Z,39
2018-09-26T17:01:28.849Z,40
2018-09-26T17:11:29.123Z,40
2018-09-26T17:21:28.477Z,41
2018-09-26T17:31:28.948Z,41
2018-09-26T17:41:30.085Z,40
2018-09-26T17:51:28.266Z,41
2018-09-26T18:01:28.631Z,41
2018-09-26T18:11:28.577Z,41
2018-09-26T18:21:28.596Z,42
2018-09-26T18:31:29.617Z,40
2018-09-26T18:41:29.142Z,41
2018-09-26T18:51:28.158Z,41
2018-09-26T19:01:28.524Z,41
2018-09-26T19:11:28.378Z,41
2018-09-26T19:21:28.701Z,42
2018-09-26T19:31:28.753Z,42
2018-09-26T19:41:29.878Z,41
2018-09-26T19:51:29.215Z,41
2018-09-26T20:01:28.048Z,41
2018-09-26T20:11:28.497Z,41
2018-09-26T20:21:28.635Z,41
2018-09-26T20:31:28.435Z,42
2018-09-26T20:41:30.568Z,40
2018-09-26T20:51:29.798Z,40
2018-09-26T21:01:28.647Z,41
2018-09-26T21:11:29.465Z,41
2018-09-26T21:21:28.580Z,41
2018-09-26T21:31:29.124Z,41
2018-09-26T21:41:29.356Z,41
2018-09-26T21:51:28.456Z,42
2018-09-26T22:01:28.274Z,41
2018-09-26T22:11:29.486Z,40
2018-09-26T22:21:29.859Z,40
2018-09-26T22:31:27.697Z,40
2018-09-26T22:41:28.821Z,42
2018-09-26T22:51:28.756Z,42
2018-09-26T23:01:29.017Z,42
2018-09-26T23:11:29.174Z,40
2018-09-26T23:21:28.683Z,41
2018-09-26T23:31:29.386Z,42
2018-09-26T23:41:28.573Z,43
2018-09-26T23:51:28.582Z,43
